Thief River Falls, MN (56701)

9:09 AM CST on February 07, 2016 (GMT -0600)
Northern Thief River Falls | | Change Station
CLOSE
Current Station
Personal Weather Station
Location: Thief River Falls, MN
Elevation: 1135 ft
Nearby Weather Stations
Active Advisory: Winter Storm Warning

Elev 1135 ft 48.12 °N, 96.18 °W | Updated 15 seconds ago

Snow
Snow
31.6 °F
Feels Like 32 °F
N
2.5
Wind Variable Wind from North
Gusts 4.9 mph

Today
High -- | Low -- °F
--% Chance of Precip.
Yesterday
High -- | Low -- °F
Precip. -- in
Pressure 29.51 in
Visibility 8.0 miles
Clouds Overcast 900 ft
Windchill 32 °F
Dew Point 28 °F
Humidity 85%
Rainfall 0.00 in
Snow Depth Not available.
7:44 AM 5:33 PM
Waning Crescent, 1% visible
METAR KTVF 071455Z AUTO 31018KT 8SM OVC009 00/M02 A2951 RMK AO1 52010
Pressure 29.51 in
Visibility 8.0 miles
Clouds Overcast 900 ft
Windchill 32 °F
Dew Point 28 °F
Humidity 85%
Rainfall 0.00 in
Snow Depth Not available.
7:44 AM 5:33 PM
Waning Crescent, 1% visible
METAR KTVF 071455Z AUTO 31018KT 8SM OVC009 00/M02 A2951 RMK AO1 52010

10-Day Weather Forecast

Almanac

Astronomy

Feb. 07, 2016 Rise Set
Actual Time
Civil Twilight
Nautical Twilight
Astronomical Twilight
Moon
Length of Visible Light
Length of Day
Tomorrow will be .
, % of the Moon is Illuminated

Today's Extremes

State Highs State Lows

Community

WunderPhotos

Upload Photos

1,891,211 photos uploaded!

WunderBlog® & News

Nearby

Air Quality

  Air Quality AQ Index Pollutant
Not available.

Snow Depth

Station Depth Elevation

Earthquake Activity

City Distance Mag. Time & Date
Minimum magnitude displayed is 2.5.

Coastal Water Temperatures

Place Temperature

Stations

Nearby Weather Stations

Station Location Temp. Windchill Dew Point Humidity Wind Precip. Elev Updated Type
                   

Watches & Warnings

Winter Storm Warning
Issued: 4:22 AM CST Feb. 7, 2016 – National Weather Service

... Winter Storm Warning remains in effect from 9 am this morning
to 6 am CST Monday...

* timing... expect snow to develop around 9 am Sunday and then
diminish around 6 am Monday.

* Snow accumulations... 1 to 3 inches.

* Winds / visibilities... winds gusting as high as 50 mph will
cause widespread blowing and drifting snow.

* Impacts... plan on difficult driving conditions.

Precautionary/preparedness actions...

A Winter Storm Warning for snow means severe winter weather
conditions are expected. If you must travel... keep an extra
flashlight... food and water in your vehicle in case of an
emergency. The latest Road conditions for the state you are
calling from can be obtained by calling 5 1 1.